YPPH/PER METAR and TAF weather

Enter ICAO airport designator
Station Type Date Time Source
YPPH METAR 2021/05/15 00:30 UTC NOAA

YPPH 150030Z 05015KT CAVOK 17/07 Q1023


Station Type Date Time Source
YPPH Decoded METAR 2021/05/15 00:30 UTC NOAA

Belmont Perth Airport , Australia (YPPH) 31-56S 115-57E 29M
May 14, 2021 - 08:30 PM EDT / 2021.05.15 0030 UTC
Wind: from the NE (050 degrees) at 17 MPH (15 KT):0
Visibility: greater than 7 mile(s):0
Temperature: 62 F (17 C)
Dew Point: 44 F (7 C)
Relative Humidity: 51%
Pressure (altimeter): 30.21 in. Hg (1023 hPa)
ob: YPPH 150030Z 05015KT CAVOK 17/07 Q1023
cycle: 0

Station Type Date Time Source
YPPH TAF 2021/05/14 21:36 UTC NOAA

TAF YPPH 142015Z 1421/1600 07014KT CAVOK
FM142200 07016G26KT CAVOK
FM150300 05012KT CAVOK
FM151200 07014KT CAVOK

Example: see airport list